Oceana Nas /Apollo Soucek Field/ Station
KNTU : rendu visible

Aérodrome :











RETROUVEZ-NOUS SUR...

 
LOGIN :

S'inscrire | Disclaimer

   EN    FR    IT 

 









Légende :    VFR   VFR Marginal   IFR   IFR Intensif   IFR Très Intensif
Visi : 
Plafond : 
>= 8 km
>= 3000ft
5 à 8 km
1000 à 3000 ft
1500m à 5 km
500 à 1000 ft
800 à 1500m
200 à 500 ft
< 800m
< 200 ft
Symboles :   Orages  Brouillard  Fortes neiges  Fortes précipitations  Vent > 20 kt






- Altitude de l'aérodrome : 23 ft


KNTU - Oceana Nas /Apollo Soucek Field/ Station

DERNIER METAR :
  • 241456Z AUTO 23006KT 10SM BKN110 OVC250 11/00 A3012 RMK AO2 SLP200 T01110000 51009

METARs EXPIRÉS :
  • 241356Z 23007KT 10SM BKN250 09/00 A3011 RMK AO2 SLP198 T00940000

TAF TAF KNTU
Valide du 24 à 15h jusqu'au 25 à 15h UTC


2415/2515 22010KT 9999 FEW050 BKN100 OVC250 QNH3001INS
FM242100 17008KT 9999 VCSH SCT015 BKN030 OVC050 QNH2994INS
TEMPO 2421/2501 6000 -SHRA FEW005 BKN010 OVC030
FM250100 17005KT 6000 -SHRA BR BKN005 OVC015 QNH2988INS
TEMPO 2501/2503 3200 SHRA BR SCT002 BKN005 OVC015
FM250600 17008KT 3200 -SHRA BR BKN002 OVC005 QNH2980INS T13/2419Z T05/2509Z FN20008



MET'MAP, la Météo Aéronautique d'un coup d'oeil ! - Copyright ORBIFLY Décembre 2007 - Disclaimer

ORBIFLY MET'MAP TEAM :

Programmation & Développement : Alexandra Zaïnal
Sur une idée originale de : Baudouin d'Aumeries
Assistance à la programmation : Marc-Olivier Méhu
Soutien technique & logistique : Manuel Goepfert

Contact : metmap@orbifly.com




SOURCES & CREDITS :

   NOAA       Earth
Advisory